createdAt,value
2022-11-28T00:01:41.468Z,10.51
2022-11-28T00:04:10.594Z,10.57
2022-11-28T00:06:41.092Z,10.62
2022-11-28T00:09:10.063Z,10.62
2022-11-28T00:11:40.686Z,10.65
2022-11-28T00:14:09.497Z,10.69
2022-11-28T00:16:39.193Z,10.72
2022-11-28T00:19:08.435Z,10.79
2022-11-28T00:21:37.020Z,10.84
2022-11-28T00:24:06.008Z,10.86
2022-11-28T00:26:36.875Z,10.86
2022-11-28T00:29:07.711Z,10.91
2022-11-28T00:31:42.812Z,10.97
2022-11-28T00:34:12.147Z,10.96
2022-11-28T00:36:40.873Z,10.98
2022-11-28T00:39:09.933Z,11.01
2022-11-28T00:41:38.393Z,10.99
2022-11-28T00:44:07.184Z,10.98
2022-11-28T00:46:35.553Z,10.99
2022-11-28T00:49:05.425Z,10.99
2022-11-28T00:51:34.949Z,11.06
2022-11-28T00:54:05.391Z,11.10
2022-11-28T00:56:36.214Z,11.11
2022-11-28T00:59:05.381Z,11.11
2022-11-28T01:01:35.934Z,11.14
2022-11-28T01:04:08.956Z,11.12
2022-11-28T01:06:39.055Z,11.15
2022-11-28T01:09:10.358Z,11.23
2022-11-28T01:11:40.317Z,11.31
2022-11-28T01:14:09.663Z,11.33
2022-11-28T01:16:38.212Z,11.30
2022-11-28T01:19:08.444Z,11.34
2022-11-28T01:21:37.068Z,11.33
2022-11-28T01:24:05.880Z,11.35
2022-11-28T01:26:34.680Z,11.34
2022-11-28T01:29:04.145Z,11.34
2022-11-28T01:31:32.615Z,11.33
2022-11-28T01:34:01.060Z,11.26
2022-11-28T01:36:31.397Z,11.35
2022-11-28T01:38:59.780Z,11.35
2022-11-28T01:41:29.682Z,11.37
2022-11-28T01:44:10.418Z,11.31
2022-11-28T01:46:38.841Z,11.30
2022-11-28T01:49:12.866Z,11.25
2022-11-28T01:51:47.427Z,11.22
2022-11-28T01:54:17.220Z,11.22
2022-11-28T01:56:51.319Z,11.19
2022-11-28T01:59:21.603Z,11.21
2022-11-28T02:01:49.984Z,11.30
2022-11-28T02:04:19.746Z,11.39
2022-11-28T02:06:49.462Z,11.44
2022-11-28T02:09:18.394Z,11.47
2022-11-28T02:12:11.392Z,11.58
2022-11-28T02:14:54.972Z,11.66
2022-11-28T02:17:36.363Z,11.69
2022-11-28T02:20:41.144Z,11.53
2022-11-28T02:23:17.003Z,11.50
2022-11-28T02:26:13.386Z,11.48
2022-11-28T02:29:14.319Z,11.41
2022-11-28T02:32:11.863Z,11.39
2022-11-28T02:34:49.151Z,11.40
2022-11-28T02:37:27.382Z,11.37
2022-11-28T02:40:07.018Z,11.38
2022-11-28T02:42:46.858Z,11.42
2022-11-28T02:45:21.814Z,11.43
2022-11-28T02:47:59.047Z,11.43
2022-11-28T02:50:33.598Z,11.41
2022-11-28T02:53:07.413Z,11.39
2022-11-28T02:55:40.338Z,11.37
2022-11-28T02:58:08.884Z,11.39
2022-11-28T03:00:40.342Z,11.42
2022-11-28T03:03:27.402Z,11.46
2022-11-28T03:06:01.611Z,11.49
2022-11-28T03:08:41.012Z,11.47
2022-11-28T03:11:16.977Z,11.47
2022-11-28T03:13:58.660Z,11.43
2022-11-28T03:16:30.172Z,11.38
2022-11-28T03:19:06.723Z,11.33
2022-11-28T03:21:41.766Z,11.28
2022-11-28T03:24:16.541Z,11.22
2022-11-28T03:26:54.651Z,11.16
2022-11-28T03:29:30.576Z,11.12
2022-11-28T03:32:04.443Z,11.14
2022-11-28T03:34:38.558Z,11.18
2022-11-28T03:37:11.233Z,11.25
2022-11-28T03:39:42.818Z,11.28
2022-11-28T03:42:14.273Z,11.27
2022-11-28T03:44:47.725Z,11.23
2022-11-28T03:47:16.674Z,11.22
2022-11-28T03:49:51.737Z,11.12
2022-11-28T03:52:25.479Z,11.11
2022-11-28T03:54:58.450Z,11.02
2022-11-28T03:57:34.507Z,10.99
2022-11-28T04:00:07.543Z,11.04
2022-11-28T04:02:49.945Z,11.02
2022-11-28T04:05:26.084Z,10.98
2022-11-28T04:08:00.029Z,11.02
2022-11-28T04:10:34.007Z,11.00
2022-11-28T04:13:08.601Z,10.96
2022-11-28T04:15:42.796Z,11.00
2022-11-28T04:18:20.286Z,11.04
2022-11-28T04:20:54.504Z,11.08
2022-11-28T04:23:25.807Z,11.12
2022-11-28T04:25:56.697Z,11.05
2022-11-28T04:28:29.287Z,11.03
2022-11-28T04:31:00.811Z,11.02
2022-11-28T04:33:33.207Z,11.04
2022-11-28T04:36:03.537Z,10.95
2022-11-28T04:38:34.224Z,10.98
2022-11-28T04:41:07.920Z,11.02
2022-11-28T04:43:42.264Z,11.04
2022-11-28T04:46:15.985Z,11.10
2022-11-28T04:48:44.642Z,11.12
2022-11-28T04:51:20.815Z,11.09
2022-11-28T04:53:54.305Z,11.07
2022-11-28T04:56:26.781Z,11.07
2022-11-28T04:58:55.152Z,10.99
2022-11-28T05:01:28.515Z,11.00
2022-11-28T05:03:56.970Z,11.05
2022-11-28T05:06:30.152Z,11.08
2022-11-28T05:08:59.239Z,11.08
2022-11-28T05:11:28.343Z,11.14
2022-11-28T05:13:57.493Z,11.04
2022-11-28T05:16:27.441Z,11.03
2022-11-28T05:18:55.740Z,10.81
2022-11-28T05:21:23.972Z,10.69
2022-11-28T05:23:53.698Z,10.56
2022-11-28T05:26:23.045Z,10.55
2022-11-28T05:28:53.604Z,10.54
2022-11-28T05:31:23.097Z,10.51
2022-11-28T05:33:51.756Z,10.45
2022-11-28T05:36:20.024Z,10.47
2022-11-28T05:38:48.857Z,10.46
2022-11-28T05:41:25.152Z,10.45
2022-11-28T05:43:54.094Z,10.45
2022-11-28T05:46:22.693Z,10.43
2022-11-28T05:48:52.858Z,10.40
2022-11-28T05:51:21.354Z,10.34
2022-11-28T05:53:49.608Z,10.27
2022-11-28T05:56:19.690Z,10.18
2022-11-28T05:58:49.424Z,10.14
2022-11-28T06:01:19.544Z,10.11
2022-11-28T06:03:49.709Z,10.07
2022-11-28T06:06:19.936Z,10.08
2022-11-28T06:08:51.622Z,10.07
2022-11-28T06:11:20.749Z,10.02
2022-11-28T06:13:50.743Z,9.98
2022-11-28T06:16:21.440Z,9.96
2022-11-28T06:18:53.357Z,9.94
2022-11-28T06:21:21.860Z,9.93
2022-11-28T06:23:50.572Z,9.92
2022-11-28T06:26:21.129Z,9.98
2022-11-28T06:28:51.030Z,10.02
2022-11-28T06:31:21.289Z,10.08
2022-11-28T06:33:49.806Z,10.14
2022-11-28T06:36:19.883Z,10.18
2022-11-28T06:38:49.011Z,10.22
2022-11-28T06:41:20.137Z,10.31
2022-11-28T06:43:48.338Z,10.30
2022-11-28T06:46:21.271Z,10.12
2022-11-28T06:48:50.960Z,10.13
2022-11-28T06:51:20.498Z,10.10
2022-11-28T06:53:49.033Z,10.05
2022-11-28T06:56:19.994Z,9.86
2022-11-28T06:58:49.457Z,9.83
2022-11-28T07:01:20.950Z,9.79
2022-11-28T07:03:50.095Z,9.85
2022-11-28T07:06:20.002Z,9.93
2022-11-28T07:08:48.727Z,10.00
2022-11-28T07:11:19.525Z,10.05
2022-11-28T07:13:48.364Z,10.04
2022-11-28T07:16:21.075Z,10.09
2022-11-28T07:18:49.822Z,10.11
2022-11-28T07:21:18.993Z,10.11
2022-11-28T07:23:48.154Z,10.11
2022-11-28T07:26:18.743Z,10.06
2022-11-28T07:28:48.199Z,10.10
2022-11-28T07:31:22.018Z,10.11
2022-11-28T07:33:52.254Z,10.09
2022-11-28T07:36:22.687Z,10.08
2022-11-28T07:38:52.043Z,10.08
2022-11-28T07:41:25.966Z,10.10
2022-11-28T07:43:56.788Z,10.11
2022-11-28T07:46:28.164Z,10.08
2022-11-28T07:48:56.851Z,10.07
2022-11-28T07:51:27.309Z,10.16
2022-11-28T07:53:56.394Z,10.21
2022-11-28T07:56:35.151Z,10.27
2022-11-28T07:59:13.172Z,10.29
2022-11-28T08:01:43.063Z,10.37
2022-11-28T08:04:11.678Z,10.47
2022-11-28T08:06:42.230Z,10.52
2022-11-28T08:09:12.219Z,10.44
2022-11-28T08:11:41.352Z,10.37
2022-11-28T08:14:09.745Z,10.35
2022-11-28T08:16:41.367Z,10.40
2022-11-28T08:19:11.215Z,10.34
2022-11-28T08:21:40.245Z,10.44
2022-11-28T08:24:09.175Z,10.56
2022-11-28T08:26:37.835Z,10.66
2022-11-28T08:29:06.224Z,10.83
2022-11-28T08:31:36.494Z,11.12
2022-11-28T08:34:07.427Z,11.40
2022-11-28T08:36:37.123Z,11.55
2022-11-28T08:39:24.425Z,11.55
2022-11-28T08:41:53.612Z,11.52
2022-11-28T08:44:22.142Z,11.50
2022-11-28T08:46:50.539Z,11.43
2022-11-28T08:49:19.096Z,11.35
2022-11-28T08:51:50.211Z,11.26
2022-11-28T08:54:18.424Z,11.19
2022-11-28T08:56:48.640Z,11.15
2022-11-28T08:59:17.310Z,11.08
2022-11-28T09:01:45.689Z,11.04
2022-11-28T09:04:14.102Z,11.05
2022-11-28T09:06:42.689Z,11.00
2022-11-28T09:09:14.047Z,11.03
2022-11-28T09:11:42.711Z,10.97
2022-11-28T09:14:10.988Z,10.99
2022-11-28T09:16:39.905Z,11.05
2022-11-28T09:19:09.410Z,11.16
2022-11-28T09:21:38.235Z,11.54
2022-11-28T09:24:07.442Z,11.84
2022-11-28T09:26:37.216Z,11.96
2022-11-28T09:29:05.540Z,12.22
2022-11-28T09:31:33.818Z,12.05
2022-11-28T09:34:03.611Z,11.82
2022-11-28T09:36:33.726Z,11.64
2022-11-28T09:39:02.898Z,12.15
2022-11-28T09:41:51.230Z,13.72
2022-11-28T09:44:24.990Z,15.27
2022-11-28T09:46:56.493Z,16.16
2022-11-28T09:49:38.494Z,16.58
2022-11-28T09:52:16.023Z,16.45
2022-11-28T09:54:52.499Z,16.11
2022-11-28T09:57:32.863Z,15.91
2022-11-28T10:00:01.793Z,15.64
2022-11-28T10:02:50.399Z,15.90
2022-11-28T10:05:25.940Z,16.22
2022-11-28T10:08:06.764Z,16.50
2022-11-28T10:10:48.900Z,16.69
2022-11-28T10:13:29.658Z,16.64
2022-11-28T10:16:10.770Z,16.82
2022-11-28T10:18:44.824Z,16.89
2022-11-28T10:21:26.262Z,16.93
2022-11-28T10:23:59.271Z,17.07
2022-11-28T10:26:35.873Z,16.99
2022-11-28T10:29:12.930Z,17.15
2022-11-28T10:31:45.563Z,17.05
2022-11-28T10:34:19.946Z,16.78
2022-11-28T10:36:55.616Z,16.56
2022-11-28T10:39:26.249Z,16.25
2022-11-28T10:42:14.202Z,16.00
2022-11-28T10:44:58.729Z,15.34
2022-11-28T10:47:45.395Z,14.86
2022-11-28T10:50:21.559Z,14.64
2022-11-28T10:52:57.255Z,14.47
2022-11-28T10:55:37.379Z,14.42
2022-11-28T10:58:14.036Z,14.39
2022-11-28T11:00:50.377Z,14.41
2022-11-28T11:03:20.709Z,14.34
2022-11-28T11:05:48.977Z,14.17
2022-11-28T11:08:21.940Z,14.10
2022-11-28T11:10:52.589Z,14.03
2022-11-28T11:13:24.801Z,13.95
2022-11-28T11:15:59.936Z,13.82
2022-11-28T11:18:31.397Z,13.90
2022-11-28T11:21:11.357Z,14.02
2022-11-28T11:23:39.675Z,13.96
2022-11-28T11:26:10.485Z,14.00
2022-11-28T11:28:45.123Z,14.01
2022-11-28T11:31:22.198Z,14.10
2022-11-28T11:33:54.274Z,14.23
2022-11-28T11:36:26.841Z,14.29
2022-11-28T11:39:08.333Z,14.16
2022-11-28T11:41:36.711Z,13.90
2022-11-28T11:44:30.488Z,13.58
2022-11-28T11:47:03.630Z,13.52
2022-11-28T11:49:34.050Z,13.48
2022-11-28T11:52:06.773Z,13.56
2022-11-28T11:54:35.024Z,13.58
2022-11-28T11:57:34.844Z,13.68
2022-11-28T11:59:56.893Z,13.73
2022-11-28T12:02:35.212Z,13.87
2022-11-28T12:05:10.360Z,14.03
2022-11-28T12:07:47.236Z,14.09
2022-11-28T12:10:20.499Z,14.12
2022-11-28T12:12:48.763Z,14.01
2022-11-28T12:15:22.705Z,13.94
2022-11-28T12:18:10.818Z,13.87
2022-11-28T12:20:52.734Z,13.69
2022-11-28T12:23:36.100Z,13.52
2022-11-28T12:26:11.530Z,13.42
2022-11-28T12:28:56.196Z,13.43
2022-11-28T12:31:33.908Z,13.52
2022-11-28T12:34:09.444Z,13.57
2022-11-28T12:36:45.357Z,13.68
2022-11-28T12:39:32.010Z,13.82
2022-11-28T12:42:18.180Z,13.96
2022-11-28T12:45:01.963Z,14.05
2022-11-28T12:47:41.237Z,14.11
2022-11-28T12:50:24.821Z,14.15
2022-11-28T12:52:59.994Z,14.12
2022-11-28T12:55:36.117Z,14.02
2022-11-28T12:58:12.666Z,13.93
2022-11-28T13:00:53.883Z,13.98
2022-11-28T13:03:35.523Z,13.91
2022-11-28T13:06:17.494Z,13.77
2022-11-28T13:09:02.427Z,13.78
2022-11-28T13:11:45.225Z,13.90
2022-11-28T13:14:27.288Z,13.91
2022-11-28T13:16:58.525Z,13.83
2022-11-28T13:19:35.840Z,13.93
2022-11-28T13:22:13.795Z,14.00
2022-11-28T13:24:53.412Z,13.97
2022-11-28T13:27:32.677Z,14.11
2022-11-28T13:30:16.105Z,14.20
2022-11-28T13:32:53.094Z,14.36
2022-11-28T13:35:21.839Z,14.44
2022-11-28T13:40:53.255Z,14.52
2022-11-28T13:43:28.864Z,14.42
2022-11-28T13:45:57.610Z,14.39
2022-11-28T13:49:19.876Z,14.34
2022-11-28T13:51:49.704Z,14.17
2022-11-28T13:54:45.366Z,13.96
2022-11-28T13:57:26.458Z,13.91
2022-11-28T13:59:59.751Z,13.91
2022-11-28T14:02:37.592Z,13.95
2022-11-28T14:05:23.056Z,13.91
2022-11-28T14:07:56.010Z,13.94
2022-11-28T14:10:47.699Z,13.90
2022-11-28T14:13:37.753Z,13.87
2022-11-28T14:16:19.083Z,13.86
2022-11-28T14:19:05.129Z,13.80
2022-11-28T14:21:47.279Z,13.79
2022-11-28T14:24:24.139Z,13.70
2022-11-28T14:27:00.485Z,13.57
2022-11-28T14:29:35.437Z,13.43
2022-11-28T14:34:55.511Z,13.37
2022-11-28T14:37:54.324Z,13.33
2022-11-28T14:41:05.438Z,13.23
2022-11-28T14:43:37.402Z,13.15
2022-11-28T14:46:32.750Z,13.02
2022-11-28T14:49:22.341Z,12.88
2022-11-28T14:52:38.847Z,12.77
2022-11-28T14:55:30.638Z,12.66
2022-11-28T14:58:00.733Z,12.64
2022-11-28T15:00:35.494Z,12.65
2022-11-28T15:03:17.467Z,12.63
2022-11-28T15:05:47.692Z,12.61
2022-11-28T15:08:45.568Z,12.57
2022-11-28T15:11:33.731Z,12.47
2022-11-28T15:14:10.140Z,12.45
2022-11-28T15:16:49.863Z,12.40
2022-11-28T15:19:25.949Z,12.38
2022-11-28T15:21:56.361Z,12.33
2022-11-28T15:24:28.154Z,12.26
2022-11-28T15:26:58.343Z,12.25
2022-11-28T15:29:29.169Z,12.20
2022-11-28T15:31:59.925Z,12.15
2022-11-28T15:34:31.584Z,12.14
2022-11-28T15:37:02.440Z,12.12
2022-11-28T15:39:35.105Z,12.12
2022-11-28T15:42:06.908Z,12.11
2022-11-28T15:44:37.824Z,12.13
2022-11-28T15:47:19.751Z,12.13
2022-11-28T15:49:59.260Z,12.05
2022-11-28T15:52:28.325Z,12.15
2022-11-28T15:54:56.672Z,12.23
2022-11-28T15:57:30.729Z,12.28
2022-11-28T15:59:59.244Z,12.23
2022-11-28T16:02:33.565Z,12.16
2022-11-28T16:05:08.867Z,12.09
2022-11-28T16:07:42.581Z,12.02
2022-11-28T16:10:24.485Z,11.93
2022-11-28T16:12:58.510Z,11.87
2022-11-28T16:15:28.415Z,11.83
2022-11-28T16:17:58.652Z,11.77
2022-11-28T16:20:28.818Z,11.73
2022-11-28T16:23:02.726Z,11.68
2022-11-28T16:25:32.638Z,11.65
2022-11-28T16:28:01.119Z,11.61
2022-11-28T16:30:34.737Z,11.57
2022-11-28T16:33:25.856Z,11.52
2022-11-28T16:35:54.079Z,11.47
2022-11-28T16:38:25.384Z,11.46
2022-11-28T16:41:01.363Z,11.43
2022-11-28T16:43:35.817Z,11.41
2022-11-28T16:46:07.241Z,11.43
2022-11-28T16:48:39.156Z,11.38
2022-11-28T16:51:32.777Z,11.35
2022-11-28T16:54:02.060Z,11.36
2022-11-28T16:56:44.773Z,11.36
2022-11-28T16:59:15.215Z,11.37
2022-11-28T17:01:44.822Z,11.39
2022-11-28T17:04:23.556Z,11.37
2022-11-28T17:06:52.811Z,11.37
2022-11-28T17:09:21.515Z,11.32
2022-11-28T17:11:55.742Z,11.31
2022-11-28T17:14:24.208Z,11.28
2022-11-28T17:16:52.449Z,11.25
2022-11-28T17:19:22.145Z,11.22
2022-11-28T17:21:52.913Z,11.20
2022-11-28T17:24:23.335Z,11.17
2022-11-28T17:26:53.257Z,11.14
2022-11-28T17:29:22.145Z,11.13
2022-11-28T17:31:50.570Z,11.09
2022-11-28T17:34:20.612Z,11.07
2022-11-28T17:36:51.046Z,11.05
2022-11-28T17:39:20.492Z,11.03
2022-11-28T17:41:49.707Z,11.00
2022-11-28T17:44:20.296Z,10.97
2022-11-28T17:46:49.575Z,10.98
2022-11-28T17:49:18.313Z,11.01
2022-11-28T17:51:46.704Z,11.09
2022-11-28T17:54:18.411Z,11.10
2022-11-28T17:56:49.443Z,11.10
2022-11-28T17:59:19.517Z,11.09
2022-11-28T18:01:48.111Z,11.07
2022-11-28T18:04:16.453Z,11.02
2022-11-28T18:06:45.508Z,11.00
2022-11-28T18:09:15.102Z,10.96
2022-11-28T18:11:46.419Z,10.94
2022-11-28T18:14:18.205Z,10.94
2022-11-28T18:16:48.424Z,10.94
2022-11-28T18:19:18.276Z,10.95
2022-11-28T18:21:47.235Z,10.96
2022-11-28T18:24:15.697Z,10.99
2022-11-28T18:26:45.383Z,11.02
2022-11-28T18:29:14.287Z,11.06
2022-11-28T18:31:44.299Z,11.08
2022-11-28T18:34:13.109Z,11.08
2022-11-28T18:36:42.318Z,11.03
2022-11-28T18:39:14.948Z,11.00
2022-11-28T18:41:43.428Z,10.89
2022-11-28T18:44:13.208Z,10.95
2022-11-28T18:46:41.841Z,10.93
2022-11-28T18:49:15.187Z,10.92
2022-11-28T18:51:44.239Z,10.93
2022-11-28T18:54:19.250Z,10.90
2022-11-28T18:56:49.239Z,10.90
2022-11-28T18:59:20.254Z,10.94
2022-11-28T19:01:48.854Z,10.94
2022-11-28T19:04:17.283Z,10.92
2022-11-28T19:06:46.222Z,10.90
2022-11-28T19:09:17.737Z,10.90
2022-11-28T19:11:46.317Z,10.88
2022-11-28T19:14:17.143Z,10.89
2022-11-28T19:16:49.687Z,10.89
2022-11-28T19:19:19.594Z,10.92
2022-11-28T19:21:50.188Z,10.93
2022-11-28T19:24:19.325Z,10.92
2022-11-28T19:26:47.808Z,10.89
2022-11-28T19:29:16.740Z,10.90
2022-11-28T19:31:46.657Z,10.92
2022-11-28T19:34:17.461Z,10.89
2022-11-28T19:36:49.232Z,10.90
2022-11-28T19:39:19.425Z,10.89
2022-11-28T19:41:49.043Z,10.86
2022-11-28T19:44:17.608Z,10.87
2022-11-28T19:46:47.916Z,10.85
2022-11-28T19:49:20.165Z,10.82
2022-11-28T19:51:50.400Z,10.80
2022-11-28T19:54:20.792Z,10.78
2022-11-28T19:56:50.532Z,10.81
2022-11-28T19:59:19.853Z,10.87
2022-11-28T20:01:50.099Z,10.90
2022-11-28T20:04:19.510Z,10.89
2022-11-28T20:06:47.797Z,10.87
2022-11-28T20:09:16.457Z,10.85
2022-11-28T20:11:45.798Z,10.84
2022-11-28T20:14:16.431Z,10.83
2022-11-28T20:16:45.486Z,10.82
2022-11-28T20:19:15.954Z,10.81
2022-11-28T20:21:46.416Z,10.79
2022-11-28T20:24:15.724Z,10.78
2022-11-28T20:26:45.848Z,10.77
2022-11-28T20:29:15.991Z,10.78
2022-11-28T20:31:46.338Z,10.74
2022-11-28T20:34:19.485Z,10.68
2022-11-28T20:36:53.264Z,10.64
2022-11-28T20:39:22.501Z,10.61
2022-11-28T20:41:50.698Z,10.56
2022-11-28T20:44:19.343Z,10.55
2022-11-28T20:46:49.613Z,10.54
2022-11-28T20:49:19.328Z,10.53
2022-11-28T20:51:47.854Z,10.50
2022-11-28T20:54:16.424Z,10.51
2022-11-28T20:57:19.805Z,10.52
2022-11-28T20:59:33.969Z,10.55
2022-11-28T21:02:02.531Z,10.60
2022-11-28T21:04:32.927Z,10.60
2022-11-28T21:07:01.321Z,10.60
2022-11-28T21:09:29.672Z,10.59
2022-11-28T21:11:59.171Z,10.62
2022-11-28T21:14:29.528Z,10.66
2022-11-28T21:16:59.552Z,10.70
2022-11-28T21:19:27.937Z,10.68
2022-11-28T21:21:57.535Z,10.68
2022-11-28T21:24:25.758Z,10.65
2022-11-28T21:26:54.941Z,10.63
2022-11-28T21:29:24.612Z,10.63
2022-11-28T21:31:53.373Z,10.58
2022-11-28T21:34:22.532Z,10.55
2022-11-28T21:36:51.064Z,10.50
2022-11-28T21:39:22.144Z,10.50
2022-11-28T21:41:52.164Z,10.52
2022-11-28T21:44:20.590Z,10.55
2022-11-28T21:46:50.155Z,10.55
2022-11-28T21:49:18.344Z,10.58
2022-11-28T21:51:46.553Z,10.60
2022-11-28T21:54:14.713Z,10.57
2022-11-28T21:56:47.431Z,10.58
2022-11-28T21:59:16.303Z,10.56
2022-11-28T22:01:45.580Z,10.54
2022-11-28T22:04:13.915Z,10.54
2022-11-28T22:06:43.234Z,10.56
2022-11-28T22:09:12.009Z,10.55
2022-11-28T22:11:40.580Z,10.55
2022-11-28T22:14:10.337Z,10.57
2022-11-28T22:16:39.189Z,10.57
2022-11-28T22:19:07.349Z,10.56
2022-11-28T22:21:56.545Z,10.54
2022-11-28T22:24:25.836Z,10.47
2022-11-28T22:26:56.888Z,10.43
2022-11-28T22:29:26.897Z,10.41
2022-11-28T22:31:55.456Z,10.39
2022-11-28T22:34:24.527Z,10.42
2022-11-28T22:36:53.115Z,10.49
2022-11-28T22:39:22.769Z,10.60
2022-11-28T22:41:50.930Z,10.71
2022-11-28T22:44:20.456Z,10.77
2022-11-28T22:46:50.444Z,10.76
2022-11-28T22:49:19.936Z,10.75
2022-11-28T22:51:48.883Z,10.71
2022-11-28T22:54:17.223Z,10.68
2022-11-28T22:56:45.445Z,10.64
2022-11-28T22:59:14.493Z,10.69
2022-11-28T23:01:43.757Z,10.75
2022-11-28T23:04:14.048Z,10.80
2022-11-28T23:06:43.066Z,10.80
2022-11-28T23:09:14.446Z,10.81
2022-11-28T23:11:43.171Z,10.80
2022-11-28T23:14:14.171Z,10.80
2022-11-28T23:16:45.273Z,10.76
2022-11-28T23:19:17.005Z,10.68
2022-11-28T23:21:47.350Z,10.60
2022-11-28T23:24:18.100Z,10.53
2022-11-28T23:26:48.140Z,10.46
2022-11-28T23:29:17.318Z,10.41
2022-11-28T23:31:47.178Z,10.34
2022-11-28T23:34:17.426Z,10.29
2022-11-28T23:36:48.327Z,10.23
2022-11-28T23:39:18.751Z,10.19
2022-11-28T23:41:47.633Z,10.19
2022-11-28T23:44:17.431Z,10.25
2022-11-28T23:46:46.527Z,10.31
2022-11-28T23:49:17.738Z,10.38
2022-11-28T23:51:46.609Z,10.44
2022-11-28T23:54:14.979Z,10.48
2022-11-28T23:56:44.939Z,10.52
2022-11-28T23:59:14.233Z,10.54
